createdAt,value
2023-03-17T04:22:38.084Z,76.65
2023-03-17T04:28:16.274Z,35.60
2023-03-17T04:30:46.165Z,29.10
2023-03-17T04:33:16.508Z,39.40
2023-03-17T04:48:53.354Z,37.75
2023-03-17T04:51:30.451Z,37.78
2023-03-17T05:04:28.832Z,40.92
2023-03-17T05:10:05.827Z,36.53
2023-03-17T05:12:36.611Z,36.90
2023-03-17T05:15:08.454Z,44.78
2023-03-17T05:17:41.057Z,41.17
2023-03-17T05:20:19.342Z,51.58
2023-03-17T05:22:49.454Z,38.38
2023-03-17T05:27:51.112Z,38.08
2023-03-17T05:30:22.064Z,37.90
2023-03-17T05:35:37.101Z,38.08
2023-03-17T05:40:55.023Z,39.85
2023-03-17T05:43:34.231Z,39.65
2023-03-17T05:46:11.539Z,36.78
2023-03-17T05:48:47.731Z,37.85
2023-03-17T05:54:20.385Z,37.13
2023-03-17T05:56:49.015Z,33.63
2023-03-17T05:59:22.072Z,35.80
2023-03-17T06:02:01.989Z,35.92
2023-03-17T06:04:35.782Z,40.60
2023-03-17T06:07:05.457Z,39.13
2023-03-17T06:09:48.950Z,39.15
2023-03-17T06:17:46.228Z,37.55
2023-03-17T06:23:05.631Z,39.70
2023-03-17T06:25:43.308Z,41.88
2023-03-17T06:28:22.953Z,36.28
2023-03-17T06:33:39.076Z,38.05
2023-03-17T06:36:11.925Z,36.75
2023-03-17T06:41:25.146Z,38.20
2023-03-17T06:43:53.898Z,32.80
2023-03-17T06:49:09.501Z,38.13
2023-03-17T06:51:42.316Z,37.65
2023-03-17T06:54:32.721Z,39.55
2023-03-17T06:59:46.950Z,41.88
2023-03-17T07:02:17.722Z,39.35
2023-03-17T07:04:53.011Z,41.15
2023-03-17T07:07:25.624Z,44.10
2023-03-17T07:10:00.903Z,43.13
2023-03-17T07:12:29.423Z,35.72
2023-03-17T07:15:00.754Z,42.90
2023-03-17T07:17:31.056Z,51.45
2023-03-17T07:22:49.544Z,43.97
2023-03-17T07:25:23.296Z,37.97
2023-03-17T07:27:53.917Z,46.97
2023-03-17T07:30:22.579Z,38.35
2023-03-17T07:32:52.501Z,35.90
2023-03-17T07:35:22.941Z,43.25
2023-03-17T07:37:55.515Z,46.28
2023-03-17T07:40:35.696Z,39.00
2023-03-17T08:05:26.388Z,38.88
2023-03-17T08:07:58.624Z,39.33
2023-03-17T08:13:27.851Z,37.85
2023-03-17T08:16:01.078Z,34.88
2023-03-17T08:18:34.187Z,39.03
2023-03-17T08:21:04.975Z,40.67
2023-03-17T08:23:49.060Z,40.47
2023-03-17T08:26:21.960Z,37.88
2023-03-17T08:29:04.475Z,36.22
2023-03-17T08:31:34.796Z,38.78
2023-03-17T08:34:23.826Z,44.50
2023-03-17T08:37:04.106Z,41.33
2023-03-17T08:39:41.192Z,35.95
2023-03-17T08:42:14.700Z,36.88
2023-03-17T08:44:49.371Z,45.78
2023-03-17T08:47:17.963Z,44.30
2023-03-17T08:52:31.278Z,45.05
2023-03-17T08:55:01.659Z,42.28
2023-03-17T09:00:00.733Z,41.85
2023-03-17T09:05:18.475Z,40.65
2023-03-17T09:07:51.389Z,40.78
2023-03-17T09:13:18.546Z,41.55
2023-03-17T09:18:52.224Z,38.22
2023-03-17T09:21:28.393Z,35.92
2023-03-17T09:24:02.264Z,40.95
2023-03-17T09:29:16.163Z,40.40
2023-03-17T09:31:46.181Z,41.00
2023-03-17T09:37:06.800Z,40.28
2023-03-17T09:39:37.134Z,38.65
2023-03-17T09:42:36.591Z,37.88
2023-03-17T09:48:43.924Z,35.67
2023-03-17T09:54:32.605Z,36.10
2023-03-17T09:57:51.982Z,39.08
2023-03-17T10:00:48.134Z,43.72
2023-03-17T10:03:22.534Z,43.28
2023-03-17T10:12:45.815Z,38.85
2023-03-17T10:21:58.312Z,36.92
2023-03-17T10:24:28.159Z,44.17
2023-03-17T10:29:26.733Z,45.63
2023-03-17T10:31:59.447Z,43.45
2023-03-17T10:34:44.683Z,45.95
2023-03-17T10:37:29.843Z,40.42
2023-03-17T10:40:02.225Z,41.08
2023-03-17T10:42:34.422Z,39.90
2023-03-17T10:45:32.052Z,45.95
2023-03-17T10:48:13.327Z,42.53
2023-03-17T10:50:41.762Z,38.42
2023-03-17T10:53:29.936Z,37.60
2023-03-17T10:56:02.816Z,41.08
2023-03-17T10:58:58.236Z,39.95
2023-03-17T11:01:53.270Z,37.88
2023-03-17T11:04:50.488Z,40.35
2023-03-17T11:07:39.045Z,40.33
2023-03-17T11:10:38.456Z,39.40
2023-03-17T11:13:09.344Z,38.13
2023-03-17T11:15:59.251Z,42.60
2023-03-17T11:21:29.221Z,46.08
2023-03-17T11:24:21.828Z,43.60
2023-03-17T11:27:05.432Z,41.00
2023-03-17T11:29:49.686Z,48.55
2023-03-17T11:32:42.661Z,43.25
2023-03-17T11:42:09.786Z,48.47
2023-03-17T11:48:19.904Z,45.10
2023-03-17T11:51:35.365Z,48.63
2023-03-17T11:54:39.518Z,45.33
2023-03-17T11:57:32.846Z,47.88
2023-03-17T12:03:40.963Z,48.50
2023-03-17T12:06:25.584Z,53.75
2023-03-17T12:09:16.808Z,45.80
2023-03-17T12:11:58.862Z,44.53
2023-03-17T12:14:38.769Z,47.30
2023-03-17T12:17:13.130Z,47.58
2023-03-17T12:23:07.083Z,39.55
2023-03-17T12:26:34.968Z,44.97
2023-03-17T12:29:31.915Z,44.33
2023-03-17T12:32:41.624Z,50.47
2023-03-17T12:35:41.065Z,38.90
2023-03-17T12:38:20.514Z,50.90
2023-03-17T12:41:34.704Z,53.08
2023-03-17T12:50:42.685Z,53.58
2023-03-17T12:59:38.807Z,52.03
2023-03-17T13:02:35.733Z,53.53
2023-03-17T13:08:08.242Z,47.80
2023-03-17T13:14:03.997Z,49.22
2023-03-17T13:19:37.868Z,58.97
2023-03-17T13:22:11.262Z,56.17
2023-03-17T13:24:52.967Z,56.22
2023-03-17T13:30:28.233Z,55.00
2023-03-17T13:36:20.981Z,53.90
2023-03-17T13:53:17.466Z,55.03
2023-03-17T13:56:14.278Z,51.03
2023-03-17T14:02:29.416Z,64.28
2023-03-17T14:05:32.999Z,55.63
2023-03-17T14:08:07.449Z,56.75
2023-03-17T14:16:44.481Z,55.60
2023-03-17T14:19:40.709Z,60.90
2023-03-17T14:22:56.301Z,59.67
2023-03-17T14:25:45.730Z,53.70
2023-03-17T14:31:06.728Z,57.05
2023-03-17T14:33:52.074Z,58.78
2023-03-17T14:44:45.641Z,60.03
2023-03-17T15:01:57.282Z,59.83
2023-03-17T15:04:38.730Z,56.63
2023-03-17T15:07:14.545Z,52.30
2023-03-17T15:12:33.914Z,54.92
2023-03-17T15:15:28.381Z,60.70
2023-03-17T15:20:56.793Z,62.22
2023-03-17T15:29:16.049Z,60.83
2023-03-17T15:32:12.445Z,60.47
2023-03-17T15:35:05.836Z,63.28
2023-03-17T15:37:42.262Z,68.70
2023-03-17T15:43:05.601Z,69.82
2023-03-17T15:45:35.264Z,63.17
2023-03-17T15:48:03.423Z,60.20
2023-03-17T15:50:33.404Z,64.68
2023-03-17T15:53:02.134Z,59.72
2023-03-17T15:55:31.834Z,66.65
2023-03-17T15:58:00.701Z,59.85
2023-03-17T16:00:30.385Z,67.65
2023-03-17T16:03:21.632Z,66.72
2023-03-17T16:05:49.716Z,65.70
2023-03-17T16:08:18.395Z,64.90
2023-03-17T16:10:47.387Z,62.75
2023-03-17T16:13:18.267Z,60.50
2023-03-17T16:16:01.184Z,64.88
2023-03-17T16:18:41.290Z,68.05
2023-03-17T16:23:45.178Z,67.55
2023-03-17T16:26:16.548Z,68.10
2023-03-17T16:28:53.679Z,69.10
2023-03-17T16:31:43.471Z,75.13
2023-03-17T16:34:19.839Z,60.65
2023-03-17T16:36:48.796Z,70.35
2023-03-17T16:39:19.297Z,67.32
2023-03-17T16:41:52.464Z,71.43
2023-03-17T16:44:27.257Z,73.47
2023-03-17T16:46:56.815Z,73.32
2023-03-17T16:49:26.829Z,73.40
2023-03-17T16:54:40.942Z,71.53
2023-03-17T16:59:55.075Z,72.40
2023-03-17T17:02:23.308Z,72.90
2023-03-17T17:04:52.678Z,77.68
2023-03-17T17:07:20.839Z,81.22
2023-03-17T17:09:48.885Z,75.22
2023-03-17T17:12:17.005Z,73.18
2023-03-17T17:14:45.128Z,75.15
2023-03-17T17:17:13.618Z,70.88
2023-03-17T17:19:42.164Z,74.68
2023-03-17T17:22:22.760Z,77.97
2023-03-17T17:24:52.607Z,70.90
2023-03-17T17:27:26.637Z,74.68
2023-03-17T17:30:02.447Z,78.32
2023-03-17T17:32:41.410Z,68.07
2023-03-17T17:43:58.667Z,70.07
2023-03-17T17:46:31.526Z,77.15
2023-03-17T17:48:59.619Z,76.70
2023-03-17T17:51:28.996Z,82.35
2023-03-17T17:53:57.067Z,75.65
2023-03-17T17:59:10.313Z,75.63
2023-03-17T18:07:14.275Z,73.40
2023-03-17T18:09:44.966Z,70.97
2023-03-17T18:12:13.299Z,68.85
2023-03-17T18:14:56.338Z,74.15
2023-03-17T18:17:32.546Z,70.03
2023-03-17T18:20:09.487Z,71.03
2023-03-17T18:22:42.039Z,74.32
2023-03-17T18:25:18.910Z,70.25
2023-03-17T18:27:48.922Z,64.53
2023-03-17T18:30:35.159Z,70.88
2023-03-17T18:33:19.051Z,68.55
2023-03-17T18:41:32.510Z,74.20
2023-03-17T18:44:09.290Z,70.82
2023-03-17T18:46:39.642Z,68.43
2023-03-17T18:54:41.416Z,69.22
2023-03-17T18:57:32.630Z,73.40
2023-03-17T19:02:59.418Z,75.28
2023-03-17T19:05:47.576Z,69.80
2023-03-17T19:08:18.202Z,68.72
2023-03-17T19:10:47.262Z,71.85
2023-03-17T19:13:16.602Z,76.63
2023-03-17T19:15:44.661Z,75.53
2023-03-17T19:18:12.890Z,75.10
2023-03-17T19:20:41.244Z,71.80
2023-03-17T19:23:09.297Z,83.80
2023-03-17T19:25:37.688Z,73.30
2023-03-17T19:28:06.565Z,77.40
2023-03-17T19:30:35.445Z,76.53
2023-03-17T19:33:03.783Z,80.45
2023-03-17T19:35:32.736Z,76.75
2023-03-17T19:38:01.481Z,67.68
2023-03-17T19:40:29.711Z,70.88
2023-03-17T19:42:58.099Z,71.68
2023-03-17T19:45:27.445Z,75.53
2023-03-17T19:47:55.486Z,69.25
2023-03-17T19:50:24.062Z,73.93
2023-03-17T19:52:53.458Z,65.68
2023-03-17T19:55:24.769Z,69.20
2023-03-17T19:57:53.165Z,68.97
2023-03-17T20:00:23.621Z,73.57
2023-03-17T20:02:51.971Z,68.68
2023-03-17T20:05:20.133Z,72.50
2023-03-17T20:07:48.168Z,77.13
2023-03-17T20:10:16.413Z,68.22
2023-03-17T20:12:46.018Z,71.20
2023-03-17T20:15:14.388Z,69.45
2023-03-17T20:17:43.343Z,67.32
2023-03-17T20:20:12.331Z,70.88
2023-03-17T20:22:42.514Z,75.53
2023-03-17T20:27:39.785Z,69.38
2023-03-17T20:30:09.694Z,75.38
2023-03-17T20:32:38.434Z,69.72
2023-03-17T20:35:08.357Z,72.85
2023-03-17T20:37:37.589Z,65.22
2023-03-17T20:40:08.584Z,71.67
2023-03-17T20:42:36.784Z,77.38
2023-03-17T20:45:05.586Z,75.05
2023-03-17T20:47:33.608Z,71.60
2023-03-17T20:50:01.654Z,74.72
2023-03-17T20:52:30.299Z,72.85
2023-03-17T20:55:00.320Z,69.35
2023-03-17T20:57:29.572Z,75.05
2023-03-17T20:59:58.414Z,80.90
2023-03-17T21:02:26.985Z,75.63
2023-03-17T21:04:55.106Z,75.47
2023-03-17T21:07:23.688Z,84.05
2023-03-17T21:09:54.345Z,85.80
2023-03-17T21:12:23.997Z,92.35
2023-03-17T21:14:52.356Z,96.50
2023-03-17T21:17:20.395Z,86.00
2023-03-17T21:19:48.399Z,88.38
2023-03-17T21:22:23.348Z,94.47
2023-03-17T21:24:51.730Z,91.63
2023-03-17T21:27:20.400Z,97.22
2023-03-17T21:29:54.307Z,84.43
2023-03-17T21:32:25.258Z,88.13
2023-03-17T21:35:00.728Z,99.80
2023-03-17T21:37:37.970Z,100.03
2023-03-17T21:40:11.942Z,87.50
2023-03-17T21:42:40.950Z,90.95
2023-03-17T21:45:09.670Z,98.25
2023-03-17T21:47:39.954Z,94.75
2023-03-17T21:50:09.936Z,102.07
2023-03-17T21:52:41.375Z,89.78
2023-03-17T21:55:19.700Z,83.75
2023-03-17T21:57:51.441Z,95.38
2023-03-17T22:00:27.122Z,98.88
2023-03-17T22:02:55.656Z,96.78
2023-03-17T22:05:25.775Z,100.45
2023-03-17T22:07:54.993Z,98.10
2023-03-17T22:10:23.739Z,99.65
2023-03-17T22:12:53.226Z,96.35
2023-03-17T22:15:36.270Z,98.32
2023-03-17T22:23:30.691Z,97.22
2023-03-17T22:28:41.095Z,97.57
2023-03-17T22:31:15.667Z,102.47
2023-03-17T22:36:34.047Z,99.78
2023-03-17T22:44:30.287Z,97.85
2023-03-17T22:46:59.344Z,104.65
2023-03-17T22:49:28.247Z,99.70
2023-03-17T22:52:06.814Z,100.18
2023-03-17T22:54:39.885Z,103.97
2023-03-17T22:59:51.045Z,99.97
2023-03-17T23:02:24.078Z,100.18
2023-03-17T23:04:54.037Z,100.80
2023-03-17T23:15:45.392Z,100.68
2023-03-17T23:21:08.682Z,92.97
2023-03-17T23:23:43.835Z,99.82
2023-03-17T23:26:11.928Z,102.65
2023-03-17T23:28:49.465Z,100.15
2023-03-17T23:31:19.675Z,98.13
2023-03-17T23:33:59.965Z,103.68
2023-03-17T23:36:42.946Z,97.93
2023-03-17T23:41:56.095Z,99.80
2023-03-17T23:44:35.659Z,99.90
2023-03-17T23:49:55.927Z,97.43
2023-03-17T23:52:29.836Z,100.88
2023-03-17T23:57:55.020Z,96.82
